EGAE/LDY METAR and TAF weather

Enter ICAO airport designator
Station Type Date Time Source
EGAE METAR 2021/07/30 19:20 UTC NOAA

EGAE 301920Z 30009KT 9999 FEW012 SCT019 BKN030 16/13 Q1008


Station Type Date Time Source
EGAE Decoded METAR 2021/07/30 19:20 UTC NOAA

Eglinton / Londonderr, United Kingdom (EGAE) 55-03N 007-09W
Jul 30, 2021 - 03:20 PM EDT / 2021.07.30 1920 UTC
Wind: from the WNW (300 degrees) at 10 MPH (9 KT):0
Visibility: greater than 7 mile(s):0
Sky conditions: mostly cloudy
Temperature: 60 F (16 C)
Dew Point: 55 F (13 C)
Relative Humidity: 82%
Pressure (altimeter): 29.77 in. Hg (1008 hPa)
ob: EGAE 301920Z 30009KT 9999 FEW012 SCT019 BKN030 16/13 Q1008
cycle: 19

Station Type Date Time Source
EGAE TAF UTC NOAA

Error!

Example: see airport list